Time;durP1;ratioP1;P1;durP2;ratioP2;P2;SDS_P1;SDS_P2;PMS_P1;PMS_P2;Temp;Humidity;BMP_temperature;BMP_pressure;BME280_temperature;BME280_humidity;BME280_pressure;Samples;Min_cycle;Max_cycle;Signal;HPM_P1;HPM_P2
2022/06/18 00:01:40;;;;;;;3.27;1.77;;;28.90;46.10;;;;;;5063412;28;20551;-68
2022/06/18 00:04:12;;;;;;;3.17;2.33;;;28.90;46.30;;;;;;5044234;28;20255;-68
2022/06/18 00:06:52;;;;;;;3.67;1.93;;;28.80;46.10;;;;;;5068125;28;20224;-68
2022/06/18 00:09:24;;;;;;;3.60;2.17;;;28.80;46.30;;;;;;5068088;28;20208;-68
2022/06/18 00:14:41;;;;;;;1.93;1.83;;;28.80;46.40;;;;;;5044210;28;20736;-68
2022/06/18 00:17:16;;;;;;;2.30;1.93;;;28.80;46.50;;;;;;5068110;28;20202;-68
2022/06/18 00:19:45;;;;;;;2.67;1.97;;;28.70;46.40;;;;;;5063533;28;20237;-68
2022/06/18 00:22:18;;;;;;;3.70;2.13;;;28.70;46.60;;;;;;5047226;28;20202;-68
2022/06/18 00:24:46;;;;;;;2.20;1.80;;;28.70;46.60;;;;;;5066718;28;20205;-68
2022/06/18 00:27:16;;;;;;;2.53;1.80;;;28.60;46.60;;;;;;5063271;28;20773;-68
2022/06/18 00:29:45;;;;;;;2.47;1.97;;;28.70;46.70;;;;;;5066062;28;20198;-68
2022/06/18 00:32:12;;;;;;;2.60;1.90;;;28.60;46.70;;;;;;5039423;28;20208;-68
2022/06/18 00:34:38;;;;;;;3.00;2.00;;;28.60;46.70;;;;;;5066756;28;20209;-68
2022/06/18 00:37:06;;;;;;;2.40;1.83;;;28.60;46.80;;;;;;5067413;28;20202;-68
2022/06/18 00:39:33;;;;;;;2.23;2.03;;;28.60;46.60;;;;;;5063854;28;20654;-68
2022/06/18 00:42:06;;;;;;;2.00;1.80;;;28.60;46.80;;;;;;5066380;28;20193;-68
2022/06/18 00:44:41;;;;;;;2.97;1.80;;;28.60;46.80;;;;;;5067513;28;20206;-68
2022/06/18 00:47:28;;;;;;;1.87;1.77;;;28.60;46.90;;;;;;5067894;28;20661;-68
2022/06/18 00:50:00;;;;;;;2.73;1.83;;;28.50;46.90;;;;;;5067360;28;20775;-68
2022/06/18 00:52:36;;;;;;;2.67;1.90;;;28.50;46.90;;;;;;5068076;28;20198;-68
2022/06/18 00:55:20;;;;;;;2.13;1.80;;;28.50;46.90;;;;;;5067516;28;20196;-68
2022/06/18 00:57:56;;;;;;;1.90;1.73;;;28.50;46.90;;;;;;5068614;28;20201;-68
2022/06/18 01:00:28;;;;;;;1.87;1.77;;;28.50;47.00;;;;;;5064062;28;20251;-68
2022/06/18 01:02:56;;;;;;;1.83;1.60;;;28.50;47.00;;;;;;5062453;28;20577;-68
2022/06/18 01:05:26;;;;;;;2.53;1.70;;;28.40;46.90;;;;;;5067289;28;20209;-68
2022/06/18 01:08:03;;;;;;;2.00;1.80;;;28.40;47.10;;;;;;5066138;28;20221;-68
2022/06/18 01:10:41;;;;;;;2.90;2.10;;;28.40;47.10;;;;;;5049595;28;20213;-68
2022/06/18 01:13:13;;;;;;;2.07;1.87;;;28.40;47.10;;;;;;5066474;28;20193;-68
2022/06/18 01:15:42;;;;;;;1.97;1.87;;;28.40;47.20;;;;;;5064753;28;20241;-68
2022/06/18 01:18:10;;;;;;;2.13;1.87;;;28.40;47.10;;;;;;5031250;28;20532;-68
2022/06/18 01:20:51;;;;;;;1.67;1.57;;;28.40;47.20;;;;;;5067304;28;20244;-68
2022/06/18 01:23:31;;;;;;;2.60;1.70;;;28.40;47.20;;;;;;5065510;28;20612;-68
2022/06/18 01:25:58;;;;;;;1.93;1.63;;;28.40;47.20;;;;;;5065952;28;20212;-68
2022/06/18 01:28:26;;;;;;;3.10;1.70;;;28.40;47.20;;;;;;5048422;28;20229;-68
2022/06/18 01:30:53;;;;;;;1.90;1.60;;;28.30;47.20;;;;;;5049204;28;20201;-68
2022/06/18 01:33:20;;;;;;;1.93;1.70;;;28.30;47.20;;;;;;5065394;28;20178;-68
2022/06/18 01:35:51;;;;;;;2.20;2.00;;;28.30;47.30;;;;;;5067204;28;20753;-68
2022/06/18 01:38:20;;;;;;;1.60;1.50;;;28.30;47.30;;;;;;5039967;28;20344;-68
2022/06/18 01:40:56;;;;;;;2.17;1.60;;;28.30;47.30;;;;;;5067374;28;20213;-68
2022/06/18 01:43:24;;;;;;;1.80;1.70;;;28.20;47.30;;;;;;5066861;28;20258;-68
2022/06/18 01:45:58;;;;;;;1.53;1.40;;;28.30;47.30;;;;;;5066567;28;20734;-68
2022/06/18 01:48:35;;;;;;;2.77;1.90;;;28.30;47.40;;;;;;5062595;28;20514;-67
2022/06/18 01:51:17;;;;;;;4.07;1.60;;;28.20;47.40;;;;;;5063719;28;20848;-67
2022/06/18 01:53:52;;;;;;;2.00;1.80;;;28.30;47.50;;;;;;5067098;28;20200;-68
2022/06/18 01:56:24;;;;;;;1.60;1.50;;;;;;;;;;5043733;28;20201;-67
2022/06/18 01:59:15;;;;;;;1.80;1.70;;;;;;;;;;5066118;28;20665;-68
2022/06/18 02:01:43;;;;;;;2.10;1.93;;;;;;;;;;5054506;28;20683;-67
2022/06/18 02:04:12;;;;;;;2.47;2.00;;;28.10;46.90;;;;;;5059726;28;20213;-67
2022/06/18 02:06:48;;;;;;;1.63;1.53;;;28.20;47.50;;;;;;5066300;28;21257;-67
2022/06/18 02:09:36;;;;;;;2.07;1.60;;;28.20;47.50;;;;;;5065473;28;20204;-67
2022/06/18 02:12:09;;;;;;;1.60;1.50;;;28.20;47.60;;;;;;5032241;28;20228;-67
2022/06/18 02:14:39;;;;;;;2.57;1.87;;;28.10;47.50;;;;;;5062079;28;20240;-67
2022/06/18 02:17:09;;;;;;;1.90;1.70;;;28.10;47.50;;;;;;5059558;28;20393;-67
2022/06/18 02:19:39;;;;;;;2.63;1.80;;;28.10;47.40;;;;;;5064391;28;20217;-67
2022/06/18 02:22:08;;;;;;;2.30;1.67;;;28.10;47.50;;;;;;5063288;28;20212;-67
2022/06/18 02:24:35;;;;;;;1.90;1.80;;;28.10;47.50;;;;;;5066033;28;20212;-67
2022/06/18 02:27:03;;;;;;;1.77;1.67;;;28.10;47.60;;;;;;5063636;28;20233;-67
2022/06/18 02:29:31;;;;;;;2.00;1.80;;;28.10;47.50;;;;;;5065243;28;20543;-68
2022/06/18 02:32:00;;;;;;;1.67;1.57;;;28.10;47.60;;;;;;5064720;28;20194;-68
2022/06/18 02:34:31;;;;;;;2.73;1.70;;;28.10;47.70;;;;;;5066015;28;20190;-68
2022/06/18 02:37:00;;;;;;;1.83;1.70;;;28.10;47.70;;;;;;5065719;28;20197;-68
2022/06/18 02:39:38;;;;;;;1.60;1.50;;;28.00;47.70;;;;;;5056728;28;20214;-68
2022/06/18 02:42:14;;;;;;;5.13;1.80;;;28.00;47.60;;;;;;5063895;28;20189;-68
2022/06/18 02:44:44;;;;;;;1.90;1.70;;;28.00;47.60;;;;;;5065706;28;20193;-68
2022/06/18 02:47:13;;;;;;;3.73;1.80;;;28.00;47.70;;;;;;5063155;28;20679;-68
2022/06/18 02:49:45;;;;;;;1.60;1.50;;;28.00;47.60;;;;;;5065802;28;20798;-68
2022/06/18 02:52:13;;;;;;;2.23;1.70;;;27.90;47.40;;;;;;5060327;28;20212;-68
2022/06/18 02:54:40;;;;;;;3.00;1.60;;;28.00;47.50;;;;;;5065233;28;20198;-68
2022/06/18 02:57:19;;;;;;;2.17;1.50;;;28.00;47.50;;;;;;5066370;28;20197;-68
2022/06/18 02:59:46;;;;;;;2.10;1.80;;;28.00;47.50;;;;;;5064884;28;20237;-67
2022/06/18 03:02:13;;;;;;;1.87;1.77;;;28.00;47.50;;;;;;5061337;28;20205;-67
2022/06/18 03:04:40;;;;;;;2.47;1.40;;;27.90;47.50;;;;;;5065366;28;20196;-67
2022/06/18 03:07:07;;;;;;;2.43;1.70;;;27.90;47.50;;;;;;5063954;28;20205;-68
2022/06/18 03:12:06;;;;;;;2.03;1.83;;;27.90;47.50;;;;;;5065908;28;20193;-69
2022/06/18 03:12:20;;;;;;;1.87;1.77;;;27.90;47.80;;;;;;5062745;28;20400;-68
2022/06/18 03:14:47;;;;;;;1.87;1.70;;;27.90;47.60;;;;;;5064318;28;20228;-67
2022/06/18 03:17:14;;;;;;;1.77;1.67;;;27.90;47.50;;;;;;5065153;28;20220;-67
2022/06/18 03:19:53;;;;;;;2.00;1.70;;;27.90;47.50;;;;;;5065585;28;20705;-67
2022/06/18 03:22:21;;;;;;;1.70;1.60;;;27.90;47.60;;;;;;5062535;28;20208;-67
2022/06/18 03:24:48;;;;;;;1.73;1.63;;;27.90;47.60;;;;;;5065195;28;20213;-67
2022/06/18 03:27:16;;;;;;;1.80;1.70;;;27.90;47.60;;;;;;5045436;28;20241;-67
2022/06/18 03:29:46;;;;;;;2.60;1.87;;;27.90;47.70;;;;;;5065221;28;20206;-67
2022/06/18 03:32:13;;;;;;;2.40;1.70;;;27.80;47.50;;;;;;5064890;28;20232;-67
2022/06/18 03:34:41;;;;;;;1.60;1.50;;;27.80;47.70;;;;;;5049985;28;20213;-67
2022/06/18 03:37:07;;;;;;;2.10;1.90;;;27.80;47.80;;;;;;5067966;28;20190;-67
2022/06/18 03:39:34;;;;;;;3.40;2.10;;;27.80;47.70;;;;;;5066574;28;20229;-67
2022/06/18 03:42:02;;;;;;;2.10;1.90;;;27.80;47.70;;;;;;5067216;28;20275;-68
2022/06/18 03:44:29;;;;;;;2.23;2.10;;;27.80;47.80;;;;;;5069190;28;20201;-68
2022/06/18 03:46:57;;;;;;;1.90;1.80;;;27.80;47.80;;;;;;5069009;28;20274;-67
2022/06/18 03:49:29;;;;;;;2.20;2.00;;;27.80;48.00;;;;;;5066536;28;20320;-67
2022/06/18 03:51:57;;;;;;;2.53;2.00;;;27.70;47.70;;;;;;5067303;28;20233;-67
2022/06/18 03:54:24;;;;;;;2.07;1.67;;;27.80;47.80;;;;;;5066245;28;20202;-67
2022/06/18 03:56:52;;;;;;;2.40;1.93;;;27.80;47.90;;;;;;5068117;28;20615;-68
2022/06/18 03:59:19;;;;;;;2.30;2.10;;;27.80;47.90;;;;;;5070717;28;20225;-68
2022/06/18 04:01:46;;;;;;;2.33;2.10;;;27.80;47.90;;;;;;5069441;28;20197;-67
2022/06/18 04:04:13;;;;;;;2.50;2.03;;;27.80;47.90;;;;;;5067381;28;20224;-67
2022/06/18 04:06:41;;;;;;;2.10;2.00;;;27.70;47.80;;;;;;5073207;28;20303;-67
2022/06/18 04:09:09;;;;;;;2.30;2.03;;;27.80;47.90;;;;;;5073615;28;20324;-67
2022/06/18 04:11:41;;;;;;;2.13;2.03;;;27.70;47.90;;;;;;5070135;28;21105;-69
2022/06/18 04:14:08;;;;;;;2.83;2.00;;;27.70;47.90;;;;;;5062862;28;20193;-69
2022/06/18 04:16:35;;;;;;;3.37;1.80;;;27.70;47.80;;;;;;5065504;28;20201;-68
2022/06/18 04:19:02;;;;;;;3.07;1.93;;;27.70;47.80;;;;;;5068492;28;20201;-68
2022/06/18 04:21:29;;;;;;;2.10;1.90;;;27.70;47.90;;;;;;5068667;28;20202;-69
2022/06/18 04:23:56;;;;;;;2.87;2.00;;;27.70;47.90;;;;;;5051657;28;20200;-69
2022/06/18 04:26:22;;;;;;;2.97;2.20;;;27.70;47.90;;;;;;5028159;28;20229;-67
2022/06/18 04:28:49;;;;;;;2.30;1.93;;;27.70;47.90;;;;;;5068302;28;20218;-66
2022/06/18 04:31:16;;;;;;;2.33;1.80;;;27.70;47.90;;;;;;5067128;28;20630;-67
2022/06/18 04:33:43;;;;;;;1.90;1.80;;;27.70;48.00;;;;;;5068566;28;20205;-67
2022/06/18 04:36:31;;;;;;;2.50;2.30;;;27.70;48.10;;;;;;5063049;28;20673;-69
2022/06/18 04:39:00;;;;;;;2.73;2.20;;;27.70;48.20;;;;;;5045998;28;20316;-69
2022/06/18 04:41:28;;;;;;;3.37;2.30;;;27.60;48.00;;;;;;5068010;28;20224;-67
2022/06/18 04:43:59;;;;;;;2.10;2.00;;;27.70;48.20;;;;;;5067244;28;20876;-67
2022/06/18 04:46:27;;;;;;;2.27;2.07;;;27.60;48.20;;;;;;5066768;28;20954;-67
2022/06/18 04:48:56;;;;;;;2.10;1.90;;;27.60;48.10;;;;;;5049720;28;20291;-67
2022/06/18 04:51:23;;;;;;;2.57;2.20;;;27.70;48.20;;;;;;5065924;28;20233;-66
2022/06/18 04:53:52;;;;;;;2.50;2.30;;;27.70;48.10;;;;;;5067818;28;20572;-66
2022/06/18 04:56:19;;;;;;;3.40;1.90;;;27.70;48.20;;;;;;5063024;28;20871;-66
2022/06/18 04:58:46;;;;;;;2.47;2.27;;;27.70;48.20;;;;;;5065539;28;20233;-66
2022/06/18 05:01:15;;;;;;;4.20;2.13;;;27.60;48.20;;;;;;5068446;28;20225;-66
2022/06/18 05:03:43;;;;;;;2.57;2.00;;;27.60;48.10;;;;;;5064760;28;20222;-66
2022/06/18 05:06:11;;;;;;;2.57;2.37;;;27.60;48.20;;;;;;5065159;28;20206;-68
2022/06/18 05:08:37;;;;;;;2.00;1.90;;;27.60;48.10;;;;;;5045679;28;20226;-68
2022/06/18 05:11:05;;;;;;;3.17;2.13;;;27.60;48.20;;;;;;5068214;28;20272;-67
2022/06/18 05:13:32;;;;;;;2.83;2.13;;;27.60;48.10;;;;;;5065201;28;20194;-67
2022/06/18 05:15:59;;;;;;;3.10;2.10;;;27.60;48.10;;;;;;5062221;28;20209;-67
2022/06/18 05:18:30;;;;;;;3.17;2.30;;;27.60;48.10;;;;;;5044877;28;20272;-67
2022/06/18 05:20:57;;;;;;;2.90;2.70;;;27.60;48.30;;;;;;5067699;28;20224;-67
2022/06/18 05:23:24;;;;;;;2.53;2.10;;;27.60;48.20;;;;;;5067286;28;20202;-67
2022/06/18 05:25:56;;;;;;;2.40;2.17;;;27.60;48.20;;;;;;5066870;28;20185;-67
2022/06/18 05:28:24;;;;;;;3.70;2.30;;;27.60;48.20;;;;;;5045094;28;20218;-67
2022/06/18 05:30:51;;;;;;;2.93;2.27;;;27.60;48.10;;;;;;5033149;28;20209;-67
2022/06/18 05:33:18;;;;;;;3.17;2.03;;;27.60;48.20;;;;;;5065829;28;20197;-68
2022/06/18 05:35:46;;;;;;;2.83;2.30;;;27.60;48.10;;;;;;5066777;28;20190;-66
2022/06/18 05:38:19;;;;;;;2.63;2.37;;;27.60;48.20;;;;;;5062048;28;20198;-66
2022/06/18 05:40:47;;;;;;;3.07;2.43;;;27.60;48.20;;;;;;5063552;28;20194;-66
2022/06/18 05:43:14;;;;;;;2.47;2.20;;;27.60;48.20;;;;;;5066959;28;20205;-66
2022/06/18 05:45:42;;;;;;;3.57;2.40;;;27.60;48.20;;;;;;5062407;28;20692;-67
2022/06/18 05:48:11;;;;;;;3.53;2.70;;;27.60;49.00;;;;;;5060270;28;20205;-67
2022/06/18 05:50:37;;;;;;;4.20;2.70;;;27.60;48.20;;;;;;5063284;28;20213;-67
2022/06/18 05:53:04;;;;;;;4.43;2.60;;;27.60;48.30;;;;;;5065847;28;20198;-67
2022/06/18 05:55:31;;;;;;;4.33;2.70;;;27.60;48.20;;;;;;5042776;28;20213;-67
2022/06/18 05:58:01;;;;;;;4.27;2.70;;;27.50;48.10;;;;;;5046216;28;20206;-67
2022/06/18 06:00:31;;;;;;;3.77;2.70;;;27.50;48.30;;;;;;5059936;28;20516;-67
2022/06/18 06:02:58;;;;;;;3.33;2.97;;;27.60;48.40;;;;;;5059634;28;20565;-67
2022/06/18 06:05:25;;;;;;;3.23;2.60;;;27.60;48.20;;;;;;5067276;28;20194;-67
2022/06/18 06:07:52;;;;;;;2.83;2.40;;;27.50;48.20;;;;;;5066408;28;20206;-67
2022/06/18 06:13:15;;;;;;;3.40;2.80;;;27.50;48.20;;;;;;5065133;28;20193;-66
2022/06/18 06:15:42;;;;;;;2.93;2.60;;;27.60;48.40;;;;;;5060450;28;20725;-67
2022/06/18 06:18:14;;;;;;;3.87;2.77;;;27.50;48.10;;;;;;5062282;28;20239;-67
2022/06/18 06:20:45;;;;;;;4.80;3.50;;;27.60;48.30;;;;;;5065752;28;20198;-68
2022/06/18 06:23:12;;;;;;;3.43;3.00;;;27.60;48.40;;;;;;5065021;28;20548;-68
2022/06/18 06:25:42;;;;;;;3.30;2.57;;;27.60;48.60;;;;;;5065687;28;20194;-69
2022/06/18 06:28:16;;;;;;;4.30;3.13;;;27.60;48.20;;;;;;5060179;28;20225;-70
2022/06/18 06:30:43;;;;;;;4.63;3.10;;;27.60;48.20;;;;;;5063631;28;20194;-67
2022/06/18 06:33:10;;;;;;;4.07;2.40;;;27.60;48.10;;;;;;5065628;28;20200;-67
2022/06/18 06:35:37;;;;;;;3.50;2.53;;;27.60;48.10;;;;;;5065715;28;20193;-67
2022/06/18 06:38:05;;;;;;;3.87;2.50;;;27.60;48.10;;;;;;5060432;28;20217;-67
2022/06/18 06:40:32;;;;;;;4.30;2.60;;;27.60;48.10;;;;;;5066423;28;20204;-67
2022/06/18 06:43:00;;;;;;;3.70;2.57;;;27.60;48.10;;;;;;5066003;28;20193;-66
2022/06/18 06:45:30;;;;;;;3.03;2.43;;;27.60;48.20;;;;;;5048170;28;20907;-66
2022/06/18 06:47:57;;;;;;;2.73;2.50;;;27.60;48.20;;;;;;5064955;28;20528;-66
2022/06/18 06:50:26;;;;;;;4.07;2.63;;;27.60;48.10;;;;;;5060412;28;20228;-68
2022/06/18 06:52:53;;;;;;;4.90;2.63;;;27.60;48.30;;;;;;5066311;28;20189;-68
2022/06/18 06:58:13;;;;;;;4.60;2.90;;;27.60;48.30;;;;;;5047512;28;20511;-67
2022/06/18 07:00:47;;;;;;;4.13;3.00;;;27.60;48.20;;;;;;5059264;28;20206;-69
2022/06/18 07:03:29;;;;;;;5.13;3.27;;;27.60;48.40;;;;;;5027554;28;20291;-69
2022/06/18 07:05:59;;;;;;;5.00;3.10;;;27.60;48.40;;;;;;5039688;28;20412;-70
2022/06/18 07:08:26;;;;;;;6.50;4.17;;;27.60;48.30;;;;;;5062967;28;20224;-69
2022/06/18 07:10:53;;;;;;;6.77;3.33;;;27.70;48.50;;;;;;5065046;28;20204;-68
2022/06/18 07:13:28;;;;;;;3.70;3.17;;;27.70;48.50;;;;;;5063510;28;20186;-68
2022/06/18 07:15:56;;;;;;;5.30;3.13;;;27.70;48.30;;;;;;5061042;28;20225;-68
2022/06/18 07:18:26;;;;;;;3.77;3.10;;;27.70;48.30;;;;;;5063054;28;20201;-68
2022/06/18 07:20:52;;;;;;;4.90;3.30;;;27.70;48.30;;;;;;5064545;28;20208;-68
2022/06/18 07:23:19;;;;;;;5.20;3.13;;;27.60;48.20;;;;;;5064382;28;20209;-67
2022/06/18 07:25:46;;;;;;;8.37;4.00;;;27.70;48.30;;;;;;5047933;28;20197;-68
2022/06/18 07:28:13;;;;;;;7.07;3.83;;;27.70;48.40;;;;;;5060084;28;20217;-68
2022/06/18 07:30:40;;;;;;;4.33;3.60;;;27.70;48.40;;;;;;5065325;28;20201;-68
2022/06/18 07:33:12;;;;;;;6.07;3.40;;;27.70;48.50;;;;;;5048506;28;20216;-67
2022/06/18 07:35:40;;;;;;;5.90;3.70;;;27.70;48.40;;;;;;5063482;28;20765;-69
2022/06/18 07:38:07;;;;;;;4.77;3.77;;;27.70;48.50;;;;;;5041847;28;20209;-69
2022/06/18 07:40:58;;;;;;;9.00;3.77;;;27.70;48.50;;;;;;5065709;28;20197;-69
2022/06/18 07:43:35;;;;;;;5.77;3.80;;;27.80;48.50;;;;;;5065651;28;20197;-70
2022/06/18 07:46:04;;;;;;;8.73;3.40;;;27.80;48.40;;;;;;5064285;28;20181;-68
2022/06/18 07:48:31;;;;;;;7.80;4.03;;;27.80;48.50;;;;;;5060172;28;20233;-68
2022/06/18 07:50:58;;;;;;;5.30;3.97;;;27.80;48.60;;;;;;5063567;28;20264;-70
2022/06/18 07:53:26;;;;;;;7.30;3.80;;;27.80;48.60;;;;;;5064017;28;20209;-70
2022/06/18 07:55:54;;;;;;;5.57;3.93;;;27.80;48.70;;;;;;5061903;28;20190;-68
2022/06/18 07:58:21;;;;;;;10.03;3.87;;;27.80;48.70;;;;;;5060643;28;20202;-68
2022/06/18 08:00:48;;;;;;;5.60;4.00;;;27.80;48.70;;;;;;5060419;28;20201;-68
2022/06/18 08:03:17;;;;;;;7.00;3.83;;;27.80;48.60;;;;;;5062577;28;20202;-69
2022/06/18 08:05:46;;;;;;;5.77;3.87;;;27.80;48.70;;;;;;5055180;28;20221;-69
2022/06/18 08:08:15;;;;;;;5.33;3.87;;;27.80;48.50;;;;;;5060966;28;20201;-69
2022/06/18 08:11:02;;;;;;;5.93;3.77;;;27.80;48.60;;;;;;5058716;28;20213;-67
2022/06/18 08:13:29;;;;;;;8.27;3.90;;;27.80;48.70;;;;;;5064737;28;20265;-67
2022/06/18 08:15:56;;;;;;;6.10;3.90;;;27.90;48.70;;;;;;5059497;28;20206;-70
2022/06/18 08:18:23;;;;;;;6.73;3.83;;;27.80;48.90;;;;;;5060933;28;20194;-70
2022/06/18 08:21:05;;;;;;;9.30;4.13;;;27.90;48.70;;;;;;5068360;28;20201;-71
2022/06/18 08:23:33;;;;;;;6.03;4.23;;;27.90;49.00;;;;;;5064607;28;20212;-70
2022/06/18 08:26:00;;;;;;;8.37;4.10;;;27.80;48.90;;;;;;5064780;28;20190;-70
2022/06/18 08:28:29;;;;;;;9.67;4.80;;;27.90;49.10;;;;;;5043953;28;20236;-70
2022/06/18 08:30:56;;;;;;;7.47;4.23;;;27.90;49.10;;;;;;5048587;28;20217;-70
2022/06/18 08:33:23;;;;;;;6.80;4.23;;;27.90;49.10;;;;;;5061686;28;20206;-69
2022/06/18 08:35:51;;;;;;;8.00;4.37;;;28.00;49.30;;;;;;5066441;28;20178;-69
2022/06/18 08:38:18;;;;;;;7.97;4.50;;;27.90;49.20;;;;;;5063581;28;20331;-69
2022/06/18 08:41:13;;;;;;;8.17;4.80;;;28.00;49.20;;;;;;5053638;28;20297;-67
2022/06/18 08:44:06;;;;;;;8.50;4.33;;;28.00;49.40;;;;;;5069588;28;20194;-67
2022/06/18 08:46:52;;;;;;;10.07;4.30;;;28.00;49.70;;;;;;5066813;28;20196;-67
2022/06/18 08:49:37;;;;;;;6.20;4.37;;;28.00;49.30;;;;;;5068629;28;20219;-68
2022/06/18 08:52:25;;;;;;;8.60;4.40;;;28.00;49.30;;;;;;5071933;28;20202;-64
2022/06/18 08:55:04;;;;;;;6.23;3.97;;;28.00;49.40;;;;;;5074697;28;20272;-63
2022/06/18 08:57:50;;;;;;;4.70;3.50;;;28.00;49.40;;;;;;5072650;28;20186;-63
2022/06/18 09:00:37;;;;;;;6.57;4.00;;;28.00;48.20;;;;;;5067115;28;20584;-63
2022/06/18 09:03:12;;;;;;;5.97;3.87;;;27.80;47.10;;;;;;5070503;28;20206;-63
2022/06/18 09:06:01;;;;;;;6.77;3.70;;;27.40;46.90;;;;;;5051944;28;20264;-63
2022/06/18 09:09:06;;;;;;;4.53;3.50;;;27.10;47.10;;;;;;5060632;28;20225;-64
2022/06/18 09:12:08;;;;;;;6.87;4.03;;;26.90;47.50;;;;;;5067577;28;20204;-63
2022/06/18 09:14:44;;;;;;;5.00;3.67;;;26.70;47.90;;;;;;5045466;28;20244;-63
2022/06/18 09:17:21;;;;;;;6.33;4.03;;;26.50;47.90;;;;;;5064699;28;20225;-62
2022/06/18 09:20:16;;;;;;;4.60;3.70;;;26.40;47.90;;;;;;5063226;28;20216;-62
2022/06/18 09:22:52;;;;;;;7.83;4.07;;;26.30;47.90;;;;;;5062891;28;20206;-62
2022/06/18 09:25:30;;;;;;;4.80;3.70;;;26.10;47.90;;;;;;5047473;28;20522;-62
2022/06/18 09:28:06;;;;;;;4.73;3.57;;;26.00;47.90;;;;;;5061218;28;20237;-62
2022/06/18 09:30:51;;;;;;;5.43;3.70;;;25.90;48.00;;;;;;5066263;28;20276;-62
2022/06/18 09:33:30;;;;;;;4.97;3.60;;;25.90;48.20;;;;;;5045571;28;20189;-62
2022/06/18 09:36:12;;;;;;;8.27;3.13;;;25.80;48.20;;;;;;5064636;28;20605;-62
2022/06/18 09:38:53;;;;;;;4.93;3.40;;;25.70;48.20;;;;;;5064670;28;20208;-62
2022/06/18 09:41:56;;;;;;;4.33;3.17;;;25.60;48.30;;;;;;5035037;28;20194;-62
2022/06/18 09:44:50;;;;;;;3.87;3.30;;;25.50;48.30;;;;;;5040047;28;20209;-62
2022/06/18 09:47:42;;;;;;;3.30;3.00;;;25.50;48.30;;;;;;5062152;28;20190;-63
2022/06/18 09:50:35;;;;;;;4.30;3.30;;;25.40;48.30;;;;;;5061401;28;20208;-62
2022/06/18 09:53:40;;;;;;;4.73;3.13;;;25.40;48.40;;;;;;5047961;28;20197;-62
2022/06/18 09:56:14;;;;;;;6.80;3.77;;;25.30;48.30;;;;;;5039813;28;20205;-62
2022/06/18 09:58:58;;;;;;;4.50;3.30;;;25.30;48.40;;;;;;5064344;28;20237;-62
2022/06/18 10:01:35;;;;;;;4.40;3.53;;;25.20;48.40;;;;;;5062808;28;20195;-62
2022/06/18 10:06:55;;;;;;;5.40;3.60;;;25.10;48.40;;;;;;5067672;28;20194;-63
2022/06/18 10:09:51;;;;;;;5.67;3.70;;;25.10;48.50;;;;;;5064596;28;20209;-62
2022/06/18 10:12:20;;;;;;;4.57;3.30;;;25.00;47.90;;;;;;5062222;28;20534;-62
2022/06/18 10:14:54;;;;;;;5.50;3.80;;;25.00;48.40;;;;;;5064915;28;20549;-62
2022/06/18 10:17:41;;;;;;;5.03;3.03;;;25.00;48.50;;;;;;5044906;28;20198;-62
2022/06/18 10:20:28;;;;;;;5.10;3.50;;;24.90;48.60;;;;;;5008005;28;20205;-62
2022/06/18 10:23:17;;;;;;;4.47;3.37;;;24.90;48.90;;;;;;5058381;28;20190;-61
2022/06/18 10:26:05;;;;;;;5.20;3.00;;;24.90;48.80;;;;;;5066041;28;20209;-61
2022/06/18 10:28:47;;;;;;;4.10;3.50;;;24.90;48.80;;;;;;5063567;28;20186;-61
2022/06/18 10:31:23;;;;;;;4.83;3.37;;;24.80;48.70;;;;;;5064942;28;20194;-63
2022/06/18 10:34:21;;;;;;;4.53;3.30;;;24.80;48.30;;;;;;5066766;28;20193;-63
2022/06/18 10:37:35;;;;;;;4.17;3.23;;;24.80;48.80;;;;;;5045864;28;20505;-62
2022/06/18 10:41:08;;;;;;;5.17;3.20;;;24.80;48.90;;;;;;4976938;28;20294;-61
2022/06/18 10:43:43;;;;;;;6.67;3.60;;;24.70;48.80;;;;;;4928163;29;20253;-61
2022/06/18 10:46:18;;;;;;;5.23;3.30;;;24.70;48.40;;;;;;4986310;28;20203;-62
2022/06/18 10:48:59;;;;;;;4.83;3.50;;;24.60;48.90;;;;;;5033713;28;20623;-62
2022/06/18 10:51:28;;;;;;;4.20;3.70;;;24.60;48.90;;;;;;5063039;28;20236;-61
2022/06/18 10:53:58;;;;;;;5.10;3.50;;;24.60;48.80;;;;;;5066552;28;20194;-61
2022/06/18 10:56:33;;;;;;;3.40;3.10;;;24.60;48.90;;;;;;5060927;28;20189;-61
2022/06/18 10:59:02;;;;;;;4.23;3.30;;;24.60;48.90;;;;;;5064825;28;20670;-61
2022/06/18 11:01:46;;;;;;;5.53;3.33;;;24.60;48.90;;;;;;5064684;28;20221;-62
2022/06/18 11:04:28;;;;;;;7.10;3.13;;;24.60;48.80;;;;;;5060983;28;20216;-62
2022/06/18 11:06:57;;;;;;;4.47;3.30;;;;;;;;;;5064008;28;20182;-62
2022/06/18 11:09:29;;;;;;;4.40;3.03;;;;;;;;;;5065563;28;20570;-63
2022/06/18 11:12:07;;;;;;;5.00;3.50;;;;;;;;;;5064527;28;20368;-62
2022/06/18 11:14:42;;;;;;;7.93;3.40;;;24.50;48.70;;;;;;5063744;28;20217;-63
2022/06/18 11:17:22;;;;;;;7.27;3.57;;;24.50;49.50;;;;;;5064601;28;20196;-63
2022/06/18 11:19:49;;;;;;;14.30;6.00;;;24.40;50.00;;;;;;5066055;28;20216;-62
2022/06/18 11:22:25;;;;;;;19.80;6.40;;;24.50;50.50;;;;;;5043465;28;20792;-64
2022/06/18 11:25:02;;;;;;;14.60;5.90;;;24.50;51.20;;;;;;5063087;28;20547;-63
2022/06/18 11:27:37;;;;;;;13.03;5.23;;;24.50;50.20;;;;;;5061552;28;20209;-64
2022/06/18 11:30:17;;;;;;;11.80;6.10;;;24.50;50.00;;;;;;5064091;28;20217;-63
2022/06/18 11:32:47;;;;;;;11.97;5.33;;;24.50;49.80;;;;;;5064337;28;20205;-62
2022/06/18 11:35:28;;;;;;;10.87;4.83;;;24.40;49.80;;;;;;5067256;28;20536;-62
2022/06/18 11:38:05;;;;;;;11.07;4.47;;;24.40;49.60;;;;;;5064645;28;20198;-62
2022/06/18 11:40:32;;;;;;;9.70;4.50;;;24.40;49.60;;;;;;5066432;28;20603;-62
2022/06/18 11:43:19;;;;;;;5.80;3.80;;;24.40;49.60;;;;;;5065394;28;20216;-63
2022/06/18 11:45:50;;;;;;;8.50;3.80;;;24.40;49.60;;;;;;5065158;28;20204;-62
2022/06/18 11:48:55;;;;;;;6.40;3.63;;;24.40;49.50;;;;;;5022919;28;20197;-62
2022/06/18 11:51:33;;;;;;;7.43;3.53;;;24.40;49.50;;;;;;5047756;28;20328;-63
2022/06/18 11:54:35;;;;;;;6.77;3.57;;;24.40;49.60;;;;;;5069982;28;20197;-63
2022/06/18 11:57:23;;;;;;;7.80;3.97;;;24.40;49.60;;;;;;5064781;28;20276;-61
2022/06/18 12:00:17;;;;;;;7.73;3.67;;;24.40;49.60;;;;;;5051503;28;20251;-62
2022/06/18 12:03:09;;;;;;;6.60;3.57;;;24.40;49.70;;;;;;5048384;28;20232;-63
2022/06/18 12:05:48;;;;;;;6.43;4.07;;;24.40;49.70;;;;;;5046252;28;20200;-63
2022/06/18 12:08:22;;;;;;;5.73;3.10;;;24.30;49.60;;;;;;5062921;28;20193;-63
2022/06/18 12:11:36;;;;;;;8.97;3.43;;;24.30;49.60;;;;;;5038310;28;20205;-63
2022/06/18 12:14:23;;;;;;;5.27;3.30;;;24.30;49.60;;;;;;5042523;28;20271;-63
2022/06/18 12:17:34;;;;;;;6.27;3.43;;;24.30;49.70;;;;;;5063707;28;20204;-63
2022/06/18 12:20:02;;;;;;;8.10;4.43;;;24.30;49.80;;;;;;5062769;28;20239;-62
2022/06/18 12:23:02;;;;;;;8.50;4.70;;;24.30;49.90;;;;;;5067445;28;20692;-63
2022/06/18 12:26:17;;;;;;;10.23;4.40;;;24.30;49.80;;;;;;5051432;28;20198;-62
2022/06/18 12:29:19;;;;;;;7.63;4.43;;;24.30;49.90;;;;;;4981115;28;20220;-62
2022/06/18 12:32:05;;;;;;;9.03;4.70;;;24.30;49.90;;;;;;5067521;28;20693;-63
2022/06/18 12:35:21;;;;;;;8.53;4.63;;;24.30;50.00;;;;;;5062425;28;20198;-64
2022/06/18 12:38:28;;;;;;;12.13;4.70;;;24.30;50.70;;;;;;5021225;28;20258;-64
2022/06/18 12:41:23;;;;;;;8.90;4.10;;;24.40;50.80;;;;;;5062916;28;20251;-60
2022/06/18 12:43:57;;;;;;;21.70;7.70;;;24.40;51.20;;;;;;5062780;28;20516;-61
2022/06/18 12:46:29;;;;;;;15.23;7.60;;;24.40;51.50;;;;;;5064468;28;20400;-62
2022/06/18 12:49:03;;;;;;;14.67;6.90;;;24.30;51.50;;;;;;5046922;28;20632;-61
2022/06/18 12:51:43;;;;;;;14.23;6.73;;;24.40;51.60;;;;;;5067371;28;20578;-62
2022/06/18 12:54:28;;;;;;;10.57;6.07;;;24.40;51.70;;;;;;5065789;28;20622;-62
2022/06/18 12:57:22;;;;;;;10.37;5.53;;;24.40;51.80;;;;;;5044009;28;20197;-62
2022/06/18 13:00:11;;;;;;;10.60;5.50;;;24.40;51.80;;;;;;5056471;28;20235;-62
2022/06/18 13:02:46;;;;;;;10.23;5.33;;;24.40;51.90;;;;;;5060593;28;20228;-63
2022/06/18 13:05:33;;;;;;;9.43;4.80;;;24.30;51.80;;;;;;5067546;28;20212;-62
2022/06/18 13:08:29;;;;;;;8.40;4.60;;;24.40;51.80;;;;;;5065493;28;20469;-62
2022/06/18 13:11:20;;;;;;;9.30;4.53;;;24.40;51.90;;;;;;5059277;28;20221;-64
2022/06/18 13:14:21;;;;;;;8.80;4.47;;;24.40;52.00;;;;;;5065435;28;20181;-64
2022/06/18 13:16:54;;;;;;;7.87;3.90;;;24.40;52.00;;;;;;5067162;28;20182;-62
2022/06/18 13:19:30;;;;;;;7.47;4.00;;;24.40;52.00;;;;;;5064128;28;20193;-62
2022/06/18 13:21:57;;;;;;;5.43;3.93;;;24.40;52.20;;;;;;5061873;28;20198;-63
2022/06/18 13:30:24;;;;;;;10.60;4.57;;;24.40;52.20;;;;;;5062375;28;20214;-63
2022/06/18 13:33:13;;;;;;;6.43;4.13;;;24.40;52.70;;;;;;5065690;28;20298;-63
2022/06/18 13:36:07;;;;;;;7.37;4.07;;;24.50;52.60;;;;;;5064535;28;20217;-63
2022/06/18 13:39:02;;;;;;;8.27;4.17;;;24.50;52.60;;;;;;5061241;28;20220;-63
2022/06/18 13:42:07;;;;;;;8.70;4.33;;;24.50;52.50;;;;;;5064088;28;20276;-64
2022/06/18 13:44:44;;;;;;;7.40;4.00;;;24.50;52.40;;;;;;5065079;28;20567;-63
2022/06/18 13:47:37;;;;;;;9.03;3.97;;;24.50;51.90;;;;;;5065631;28;20197;-64